Cork, Kentucky
Current Conditions -  °F | °C
As of 8:15 PM on Thursday 20 Nov 2014 (Local Time) from KGLW Reporting Station
Clear Clear  
Wind Chill: 27°   Ceiling: Unl
Heat Index: 27°   Visibility: 10mi
Dew Point: 20°   Wind: 3mph
Humidity: 76%   Direction: 340°NNW
Pressure: 30.26"   Gusts: NA
Location:  36.9886°N, 85.5829°W
Report Text: KGLW 210215Z AUTO 34003KT 10SM CLR M03/M07 A3026 RMK AO2 T10301067
Loading
Personal Weather Stations






























Interactive Weather Map New forecast layout! Learn more

10-Day Weather Forecast

Advertisements
Track Severe Weather on mobile